createdAt,value
2022-10-28T00:01:16.787Z,102181.91
2022-10-28T00:03:46.244Z,102182.63
2022-10-28T00:06:16.712Z,102190.47
2022-10-28T00:08:44.044Z,102187.91
2022-10-28T00:11:28.683Z,102195.88
2022-10-28T00:13:57.569Z,102191.34
2022-10-28T00:16:25.626Z,102198.44
2022-10-28T00:18:54.278Z,102199.13
2022-10-28T00:21:22.618Z,102203.44
2022-10-28T00:23:49.358Z,102206.25
2022-10-28T00:26:18.579Z,102177.00
2022-10-28T00:28:47.744Z,102201.53
2022-10-28T00:31:17.337Z,102206.94
2022-10-28T00:33:44.155Z,102195.78
2022-10-28T00:36:23.484Z,102192.03
2022-10-28T00:38:51.857Z,102199.44
2022-10-28T00:41:23.992Z,102197.75
2022-10-28T00:43:55.895Z,102194.31
2022-10-28T00:46:33.803Z,102192.34
2022-10-28T00:49:05.788Z,102190.59
2022-10-28T00:51:34.780Z,102188.91
2022-10-28T00:54:02.875Z,102187.19
2022-10-28T00:56:34.029Z,102186.34
2022-10-28T00:59:04.328Z,102186.34
2022-10-28T01:01:31.110Z,102185.72
2022-10-28T01:04:00.611Z,102181.59
2022-10-28T01:06:29.014Z,102172.88
2022-10-28T01:08:59.091Z,102181.16
2022-10-28T01:11:40.527Z,102177.97
2022-10-28T01:14:22.226Z,102167.44
2022-10-28T01:17:02.893Z,102160.59
2022-10-28T01:19:53.540Z,102153.88
2022-10-28T01:22:27.970Z,102154.59
2022-10-28T01:25:13.408Z,102154.31
2022-10-28T01:27:46.035Z,102158.75
2022-10-28T01:30:19.606Z,102149.22
2022-10-28T01:32:57.909Z,102136.28
2022-10-28T01:35:39.068Z,102135.59
2022-10-28T01:38:17.982Z,102139.88
2022-10-28T01:41:14.571Z,102140.47
2022-10-28T01:43:44.576Z,102141.72
2022-10-28T01:46:17.727Z,102133.19
2022-10-28T01:48:48.816Z,102130.88
2022-10-28T01:51:30.931Z,102134.41
2022-10-28T01:54:01.175Z,102131.94
2022-10-28T01:56:32.799Z,102140.78
2022-10-28T01:59:01.272Z,102126.50
2022-10-28T02:01:30.149Z,102139.63
2022-10-28T02:03:57.141Z,102134.84
2022-10-28T02:06:27.322Z,102140.41
2022-10-28T02:09:03.941Z,102130.00
2022-10-28T02:11:34.906Z,102134.22
2022-10-28T02:14:30.862Z,102138.19
2022-10-28T02:17:31.739Z,102143.59
2022-10-28T02:20:08.363Z,102134.88
2022-10-28T02:22:52.510Z,102136.75
2022-10-28T02:25:29.297Z,102134.44
2022-10-28T02:30:41.941Z,102145.38
2022-10-28T02:33:12.857Z,102143.66
2022-10-28T02:35:45.321Z,102143.78
2022-10-28T02:38:17.276Z,102125.78
2022-10-28T02:40:50.062Z,102137.06
2022-10-28T02:43:19.581Z,102137.31
2022-10-28T02:45:50.499Z,102146.63
2022-10-28T02:48:26.327Z,102152.41
2022-10-28T02:51:03.545Z,102150.09
2022-10-28T02:53:33.160Z,102150.38
2022-10-28T02:56:02.530Z,102154.53
2022-10-28T02:58:29.359Z,102133.44
2022-10-28T03:00:56.112Z,102151.69
2022-10-28T03:03:22.877Z,102159.66
2022-10-28T03:05:49.557Z,102154.53
2022-10-28T03:08:16.297Z,102158.41
2022-10-28T03:10:43.380Z,102168.34
2022-10-28T03:13:09.938Z,102160.97
2022-10-28T03:15:36.525Z,102153.16
2022-10-28T03:18:03.297Z,102148.59
2022-10-28T03:20:29.833Z,102154.59
2022-10-28T03:22:56.735Z,102165.75
2022-10-28T03:25:23.519Z,102144.31
2022-10-28T03:27:50.105Z,102143.44
2022-10-28T03:30:18.492Z,102154.94
2022-10-28T03:32:45.432Z,102151.22
2022-10-28T03:35:12.169Z,102156.91
2022-10-28T03:37:42.463Z,102147.34
2022-10-28T03:40:10.432Z,102149.78
2022-10-28T03:42:38.937Z,102151.75
2022-10-28T03:45:08.652Z,102143.19
2022-10-28T03:47:35.517Z,102145.91
2022-10-28T03:50:02.045Z,102148.91
2022-10-28T03:52:28.695Z,102138.63
2022-10-28T03:54:55.280Z,102138.75
2022-10-28T03:57:21.828Z,102134.63
2022-10-28T03:59:48.398Z,102127.75
2022-10-28T04:02:15.856Z,102135.25
2022-10-28T04:04:42.617Z,102121.53
2022-10-28T04:07:09.287Z,102129.50
2022-10-28T04:09:35.836Z,102130.00
2022-10-28T04:12:02.519Z,102118.41
2022-10-28T04:14:29.199Z,102127.25
2022-10-28T04:16:55.803Z,102132.16
2022-10-28T04:19:22.350Z,102135.72
2022-10-28T04:21:48.920Z,102132.69
2022-10-28T04:24:17.050Z,102143.97
2022-10-28T04:26:43.641Z,102135.75
2022-10-28T04:29:10.205Z,102147.03
2022-10-28T04:31:36.843Z,102133.91
2022-10-28T04:34:03.363Z,102142.88
2022-10-28T04:36:29.890Z,102131.59
2022-10-28T04:38:56.432Z,102135.28
2022-10-28T04:41:23.030Z,102130.88
2022-10-28T04:43:49.635Z,102140.69
2022-10-28T04:46:16.155Z,102127.84
2022-10-28T04:48:42.671Z,102133.97
2022-10-28T04:51:09.339Z,102127.94
2022-10-28T04:53:35.936Z,102137.91
2022-10-28T04:56:02.512Z,102129.69
2022-10-28T04:58:29.039Z,102138.88
2022-10-28T05:00:55.747Z,102116.94
2022-10-28T05:03:22.317Z,102130.91
2022-10-28T05:05:48.886Z,102132.63
2022-10-28T05:08:15.665Z,102127.94
2022-10-28T05:10:42.236Z,102123.03
2022-10-28T05:13:08.764Z,102118.50
2022-10-28T05:15:35.288Z,102112.25
2022-10-28T05:18:01.972Z,102118.09
2022-10-28T05:20:28.514Z,102122.25
2022-10-28T05:22:56.894Z,102120.56
2022-10-28T05:25:24.323Z,102113.69
2022-10-28T05:27:51.056Z,102131.22
2022-10-28T05:30:18.528Z,102120.19
2022-10-28T05:32:47.435Z,102134.81
2022-10-28T05:35:15.988Z,102123.69
2022-10-28T05:37:44.314Z,102131.66
2022-10-28T05:40:11.536Z,102130.66
2022-10-28T05:42:44.405Z,102136.03
2022-10-28T05:45:11.755Z,102133.63
2022-10-28T05:47:48.450Z,102133.47
2022-10-28T05:50:18.384Z,102137.19
2022-10-28T05:52:52.469Z,102142.66
2022-10-28T05:55:20.627Z,102149.53
2022-10-28T05:57:47.972Z,102147.56
2022-10-28T06:00:16.417Z,102145.31
2022-10-28T06:02:43.267Z,102155.88
2022-10-28T06:05:10.800Z,102144.69
2022-10-28T06:07:38.234Z,102147.72
2022-10-28T06:10:06.311Z,102143.78
2022-10-28T06:12:31.657Z,102143.28
2022-10-28T06:14:58.442Z,102148.03
2022-10-28T06:17:25.371Z,102146.03
2022-10-28T06:19:51.956Z,102149.00
2022-10-28T06:22:18.691Z,102150.16
2022-10-28T06:24:45.295Z,102146.28
2022-10-28T06:27:11.782Z,102152.28
2022-10-28T06:29:38.354Z,102155.22
2022-10-28T06:32:08.191Z,102144.59
2022-10-28T06:34:34.788Z,102161.66
2022-10-28T06:37:01.378Z,102179.53
2022-10-28T06:39:27.999Z,102174.91
2022-10-28T06:41:54.506Z,102171.84
2022-10-28T06:44:21.007Z,102181.91
2022-10-28T06:46:48.984Z,102185.63
2022-10-28T06:49:15.537Z,102184.56
2022-10-28T06:51:42.095Z,102179.75
2022-10-28T06:54:08.634Z,102193.94
2022-10-28T06:56:35.189Z,102189.22
2022-10-28T06:59:01.695Z,102195.69
2022-10-28T07:01:28.240Z,102196.97
2022-10-28T07:03:54.847Z,102200.66
2022-10-28T07:06:21.469Z,102212.81
2022-10-28T07:08:47.980Z,102200.00
2022-10-28T07:11:14.554Z,102200.69
2022-10-28T07:13:42.458Z,102213.00
2022-10-28T07:16:10.793Z,102220.34
2022-10-28T07:18:37.295Z,102223.28
2022-10-28T07:21:03.972Z,102226.31
2022-10-28T07:23:34.168Z,102211.19
2022-10-28T07:26:01.131Z,102231.91
2022-10-28T07:28:29.345Z,102238.69
2022-10-28T07:31:04.294Z,102230.63
2022-10-28T07:33:31.080Z,102234.50
2022-10-28T07:35:57.610Z,102234.25
2022-10-28T07:38:24.191Z,102233.28
2022-10-28T07:40:50.712Z,102230.09
2022-10-28T07:43:17.220Z,102238.81
2022-10-28T07:45:43.851Z,102229.75
2022-10-28T07:48:10.460Z,102226.72
2022-10-28T07:50:36.966Z,102242.09
2022-10-28T07:53:03.465Z,102235.63
2022-10-28T07:55:30.037Z,102231.09
2022-10-28T07:57:56.767Z,102239.75
2022-10-28T08:00:23.566Z,102244.47
2022-10-28T08:02:50.326Z,102247.25
2022-10-28T08:05:16.865Z,102242.09
2022-10-28T08:07:43.559Z,102240.28
2022-10-28T08:10:10.475Z,102238.19
2022-10-28T08:12:37.030Z,102237.66
2022-10-28T08:15:04.586Z,102238.53
2022-10-28T08:17:31.157Z,102225.00
2022-10-28T08:19:57.890Z,102240.16
2022-10-28T08:22:24.661Z,102239.53
2022-10-28T08:24:51.240Z,102239.38
2022-10-28T08:27:17.818Z,102229.34
2022-10-28T08:29:44.310Z,102242.56
2022-10-28T08:32:10.774Z,102250.50
2022-10-28T08:34:39.485Z,102235.16
2022-10-28T08:37:09.234Z,102238.53
2022-10-28T08:39:35.877Z,102248.84
2022-10-28T08:42:09.672Z,102244.34
2022-10-28T08:44:44.817Z,102242.53
2022-10-28T08:47:31.771Z,102234.34
2022-10-28T08:50:04.544Z,102230.66
2022-10-28T08:52:44.912Z,102235.75
2022-10-28T08:55:17.134Z,102237.63
2022-10-28T08:57:51.798Z,102237.41
2022-10-28T09:00:28.175Z,102235.28
2022-10-28T09:03:13.810Z,102232.22
2022-10-28T09:05:42.458Z,102226.59
2022-10-28T09:08:31.523Z,102231.19
2022-10-28T09:11:11.779Z,102230.94
2022-10-28T09:13:41.288Z,102236.34
2022-10-28T09:16:39.652Z,102236.59
2022-10-28T09:19:14.712Z,102242.31
2022-10-28T09:21:47.374Z,102241.91
2022-10-28T09:24:20.518Z,102237.75
2022-10-28T09:26:46.937Z,102238.94
2022-10-28T09:29:32.413Z,102242.94
2022-10-28T09:32:22.107Z,102244.28
2022-10-28T09:35:10.115Z,102242.13
2022-10-28T09:37:47.575Z,102240.78
2022-10-28T09:40:21.665Z,102235.47
2022-10-28T09:43:08.552Z,102231.56
2022-10-28T09:45:40.085Z,102230.84
2022-10-28T09:48:22.335Z,102227.84
2022-10-28T09:50:51.919Z,102229.91
2022-10-28T09:53:40.039Z,102234.53
2022-10-28T09:58:36.827Z,102238.53
2022-10-28T10:01:04.897Z,102231.38
2022-10-28T10:03:32.945Z,102238.72
2022-10-28T10:06:25.033Z,102233.09
2022-10-28T10:08:52.898Z,102222.34
2022-10-28T10:11:25.568Z,102227.91
2022-10-28T10:13:54.133Z,102227.59
2022-10-28T10:16:42.263Z,102229.47
2022-10-28T10:19:11.031Z,102226.16
2022-10-28T10:21:42.201Z,102223.50
2022-10-28T10:24:25.650Z,102221.16
2022-10-28T10:26:54.529Z,102221.16
2022-10-28T10:29:22.194Z,102217.28
2022-10-28T10:32:03.815Z,102216.47
2022-10-28T10:34:31.021Z,102211.09
2022-10-28T10:36:57.619Z,102215.22
2022-10-28T10:39:31.501Z,102205.59
2022-10-28T10:41:58.857Z,102204.59
2022-10-28T10:44:32.558Z,102204.81
2022-10-28T10:47:05.939Z,102201.09
2022-10-28T10:49:35.061Z,102198.94
2022-10-28T10:52:26.217Z,102187.69
2022-10-28T10:55:03.679Z,102181.25
2022-10-28T10:57:31.408Z,102189.25
2022-10-28T10:59:58.246Z,102182.53
2022-10-28T11:02:35.085Z,102173.25
2022-10-28T11:05:10.276Z,102177.00
2022-10-28T11:07:40.407Z,102167.84
2022-10-28T11:10:19.127Z,102161.09
2022-10-28T11:12:57.236Z,102166.72
2022-10-28T11:15:31.668Z,102172.00
2022-10-28T11:18:20.825Z,102164.66
2022-10-28T11:20:49.975Z,102164.84
2022-10-28T11:23:56.132Z,102152.56
2022-10-28T11:26:24.575Z,102147.09
2022-10-28T11:29:01.808Z,102145.75
2022-10-28T11:31:50.370Z,102154.06
2022-10-28T11:34:35.549Z,102150.56
2022-10-28T11:37:20.058Z,102142.50
2022-10-28T11:39:56.190Z,102131.69
2022-10-28T11:42:40.785Z,102134.25
2022-10-28T11:45:10.411Z,102127.69
2022-10-28T11:47:48.774Z,102133.31
2022-10-28T11:50:23.187Z,102118.50
2022-10-28T11:53:10.993Z,102131.16
2022-10-28T11:56:30.146Z,102126.00
2022-10-28T11:58:59.723Z,102119.56
2022-10-28T12:01:44.750Z,102113.75
2022-10-28T12:04:17.600Z,102116.25
2022-10-28T12:07:02.350Z,102109.84
2022-10-28T12:09:34.863Z,102111.31
2022-10-28T12:12:13.385Z,102111.44
2022-10-28T12:15:13.349Z,102105.09
2022-10-28T12:17:50.896Z,102101.09
2022-10-28T12:20:26.277Z,102098.47
2022-10-28T12:22:56.211Z,102088.06
2022-10-28T12:25:27.837Z,102088.25
2022-10-28T12:30:52.895Z,102076.81
2022-10-28T12:33:34.567Z,102078.75
2022-10-28T12:36:20.782Z,102067.16
2022-10-28T12:39:02.945Z,102067.47
2022-10-28T12:41:52.316Z,102054.78
2022-10-28T12:44:25.171Z,102049.97
2022-10-28T12:47:05.529Z,102050.84
2022-10-28T12:49:47.207Z,102050.44
2022-10-28T12:52:27.581Z,102047.94
2022-10-28T12:55:18.548Z,102051.44
2022-10-28T12:57:49.835Z,102050.59
2022-10-28T13:00:22.949Z,102049.16
2022-10-28T13:03:07.642Z,102050.09
2022-10-28T13:05:43.314Z,102049.69
2022-10-28T13:08:43.766Z,102034.88
2022-10-28T13:11:19.120Z,102028.53
2022-10-28T13:13:53.392Z,102040.91
2022-10-28T13:16:57.602Z,102046.00
2022-10-28T13:19:59.545Z,102041.13
2022-10-28T13:23:08.227Z,102036.91
2022-10-28T13:25:59.337Z,102034.59
2022-10-28T13:28:34.148Z,102027.38
2022-10-28T13:31:03.909Z,102020.97
2022-10-28T13:33:33.450Z,102029.88
2022-10-28T13:36:25.269Z,102022.22
2022-10-28T13:38:55.757Z,102025.19
2022-10-28T13:41:34.541Z,102021.38
2022-10-28T13:44:11.126Z,102018.63
2022-10-28T13:46:59.199Z,102018.03
2022-10-28T13:49:29.618Z,102019.13
2022-10-28T13:52:11.934Z,102013.00
2022-10-28T13:54:44.436Z,102022.16
2022-10-28T13:57:39.848Z,102025.34
2022-10-28T14:00:29.348Z,102017.28
2022-10-28T14:03:02.344Z,102010.31
2022-10-28T14:05:38.088Z,102015.16
2022-10-28T14:08:20.175Z,102017.31
2022-10-28T14:11:06.077Z,102014.31
2022-10-28T14:13:37.855Z,102012.00
2022-10-28T14:16:27.617Z,102015.78
2022-10-28T14:18:56.067Z,102018.13
2022-10-28T14:21:23.805Z,102007.06
2022-10-28T14:24:13.252Z,102001.53
2022-10-28T14:27:15.470Z,102007.03
2022-10-28T14:29:50.815Z,102015.66
2022-10-28T14:32:32.937Z,102007.19
2022-10-28T14:35:05.854Z,102007.78
2022-10-28T14:38:15.207Z,102005.03
2022-10-28T14:41:03.205Z,102005.44
2022-10-28T14:43:50.774Z,102009.44
2022-10-28T14:46:17.411Z,102005.19
2022-10-28T14:48:55.192Z,102010.66
2022-10-28T15:07:19.249Z,101999.22
2022-10-28T15:09:53.729Z,101992.38
2022-10-28T15:12:22.618Z,102014.84
2022-10-28T15:14:52.288Z,102013.75
2022-10-28T15:17:27.360Z,102008.00
2022-10-28T15:19:56.494Z,101992.97
2022-10-28T15:22:32.116Z,101994.56
2022-10-28T15:25:04.641Z,102005.97
2022-10-28T15:27:33.582Z,102004.03
2022-10-28T15:30:00.464Z,102006.03
2022-10-28T15:32:32.734Z,102001.78
2022-10-28T15:35:00.295Z,102001.34
2022-10-28T15:37:30.278Z,102004.22
2022-10-28T15:40:30.976Z,102010.25
2022-10-28T15:43:06.287Z,101991.97
2022-10-28T15:45:41.283Z,101999.75
2022-10-28T15:48:19.450Z,102003.47
2022-10-28T15:50:46.288Z,101994.06
2022-10-28T15:53:31.978Z,102013.25
2022-10-28T15:56:25.224Z,102013.75
2022-10-28T15:59:24.000Z,102006.41
2022-10-28T16:01:51.080Z,102013.97
2022-10-28T16:04:23.640Z,102009.91
2022-10-28T16:06:55.816Z,102015.91
2022-10-28T16:09:32.155Z,102006.94
2022-10-28T16:12:02.590Z,102005.28
2022-10-28T16:14:39.365Z,102013.56
2022-10-28T16:17:16.691Z,102012.81
2022-10-28T16:19:50.040Z,101997.63
2022-10-28T16:22:18.577Z,102008.34
2022-10-28T16:24:45.730Z,102005.69
2022-10-28T16:27:21.831Z,102007.78
2022-10-28T16:29:49.207Z,101996.81
2022-10-28T16:32:18.179Z,101993.53
2022-10-28T16:34:47.476Z,101988.25
2022-10-28T16:37:33.522Z,102026.47
2022-10-28T16:40:04.358Z,102007.44
2022-10-28T16:42:31.324Z,102011.28
2022-10-28T16:44:57.973Z,102006.41
2022-10-28T16:47:27.091Z,102008.84
2022-10-28T16:55:17.285Z,102036.38
2022-10-28T16:57:43.913Z,102024.78
2022-10-28T17:00:13.854Z,102014.22
2022-10-28T17:02:40.838Z,102028.53
2022-10-28T17:05:19.365Z,102031.94
2022-10-28T17:07:46.004Z,102012.19
2022-10-28T17:10:13.056Z,102028.56
2022-10-28T17:12:39.912Z,102029.59
2022-10-28T17:15:07.419Z,102048.69
2022-10-28T17:17:33.958Z,102036.44
2022-10-28T17:20:00.497Z,102053.47
2022-10-28T17:22:27.634Z,102050.72
2022-10-28T17:24:54.591Z,102032.47
2022-10-28T17:27:21.200Z,102039.16
2022-10-28T17:29:47.922Z,102036.50
2022-10-28T17:32:15.025Z,102045.03
2022-10-28T17:34:41.608Z,102048.75
2022-10-28T17:37:08.623Z,102046.00
2022-10-28T17:39:35.157Z,102043.44
2022-10-28T17:42:01.968Z,102048.53
2022-10-28T17:44:28.535Z,102054.63
2022-10-28T17:46:55.154Z,102050.16
2022-10-28T17:49:21.714Z,102052.50
2022-10-28T17:51:48.288Z,102040.25
2022-10-28T17:54:14.923Z,102056.59
2022-10-28T17:56:42.270Z,102058.44
2022-10-28T17:59:09.300Z,102048.69
2022-10-28T18:01:36.042Z,102057.81
2022-10-28T18:04:06.281Z,102051.81
2022-10-28T18:06:33.027Z,102050.41
2022-10-28T18:08:59.593Z,102053.16
2022-10-28T18:11:27.462Z,102047.13
2022-10-28T18:13:55.950Z,102053.09
2022-10-28T18:16:25.300Z,102059.06
2022-10-28T18:18:53.347Z,102055.44
2022-10-28T18:21:24.564Z,102041.91
2022-10-28T18:24:03.617Z,102052.47
2022-10-28T18:26:32.246Z,102065.03
2022-10-28T18:28:59.086Z,102060.94
2022-10-28T18:31:25.951Z,102070.63
2022-10-28T18:33:52.486Z,102069.41
2022-10-28T18:36:23.668Z,102066.69
2022-10-28T18:38:51.449Z,102081.13
2022-10-28T18:41:21.117Z,102077.34
2022-10-28T18:43:47.897Z,102082.25
2022-10-28T18:46:14.812Z,102085.59
2022-10-28T18:48:41.512Z,102082.31
2022-10-28T18:51:11.204Z,102078.22
2022-10-28T18:53:42.263Z,102075.66
2022-10-28T18:56:16.120Z,102083.81
2022-10-28T18:58:43.296Z,102078.00
2022-10-28T19:01:12.855Z,102078.94
2022-10-28T19:03:39.961Z,102086.16
2022-10-28T19:06:09.269Z,102073.34
2022-10-28T19:08:35.786Z,102077.38
2022-10-28T19:11:03.598Z,102091.91
2022-10-28T19:13:33.895Z,102093.06
2022-10-28T19:16:00.593Z,102083.50
2022-10-28T19:18:27.343Z,102073.84
2022-10-28T19:20:56.820Z,102091.69
2022-10-28T19:23:23.481Z,102080.06
2022-10-28T19:25:56.932Z,102086.03
2022-10-28T19:28:23.579Z,102074.91
2022-10-28T19:30:50.399Z,102082.53
2022-10-28T19:33:16.916Z,102084.81
2022-10-28T19:35:43.445Z,102086.28
2022-10-28T19:38:12.899Z,102082.72
2022-10-28T19:40:39.445Z,102078.31
2022-10-28T19:43:06.040Z,102083.03
2022-10-28T19:45:32.730Z,102075.88
2022-10-28T19:48:02.296Z,102068.50
2022-10-28T19:50:28.882Z,102069.97
2022-10-28T19:52:55.467Z,102074.13
2022-10-28T19:55:22.086Z,102086.16
2022-10-28T19:57:51.906Z,102091.50
2022-10-28T20:00:19.709Z,102096.91
2022-10-28T20:02:47.432Z,102092.78
2022-10-28T20:05:14.041Z,102086.66
2022-10-28T20:07:40.636Z,102090.78
2022-10-28T20:10:07.806Z,102088.34
2022-10-28T20:12:34.339Z,102103.31
2022-10-28T20:15:00.868Z,102105.75
2022-10-28T20:17:27.447Z,102103.31
2022-10-28T20:19:54.014Z,102097.78
2022-10-28T20:22:20.609Z,102099.81
2022-10-28T20:24:47.227Z,102101.66
2022-10-28T20:27:13.767Z,102098.69
2022-10-28T20:29:40.314Z,102101.53
2022-10-28T20:32:06.843Z,102104.72
2022-10-28T20:34:33.425Z,102103.59
2022-10-28T20:36:59.986Z,102098.75
2022-10-28T20:39:26.553Z,102105.03
2022-10-28T20:41:53.215Z,102102.16
2022-10-28T20:44:19.830Z,102086.44
2022-10-28T20:46:48.011Z,102100.47
2022-10-28T20:49:15.351Z,102101.19
2022-10-28T20:51:42.450Z,102099.88
2022-10-28T20:54:09.388Z,102110.03
2022-10-28T20:56:37.791Z,102106.03
2022-10-28T20:59:05.360Z,102111.59
2022-10-28T21:01:37.733Z,102100.75
2022-10-28T21:04:07.996Z,102113.91
2022-10-28T21:06:35.788Z,102107.34
2022-10-28T21:09:02.396Z,102111.34
2022-10-28T21:11:28.978Z,102105.91
2022-10-28T21:13:58.018Z,102114.03
2022-10-28T21:16:25.695Z,102109.91
2022-10-28T21:18:52.679Z,102112.34
2022-10-28T21:21:20.455Z,102101.06
2022-10-28T21:23:47.002Z,102113.47
2022-10-28T21:26:13.623Z,102102.81
2022-10-28T21:28:43.316Z,102111.19
2022-10-28T21:31:15.311Z,102116.34
2022-10-28T21:33:42.933Z,102109.91
2022-10-28T21:36:12.004Z,102110.50
2022-10-28T21:38:38.659Z,102118.94
2022-10-28T21:41:12.132Z,102113.78
2022-10-28T21:43:40.611Z,102114.94
2022-10-28T21:46:07.590Z,102123.19
2022-10-28T21:48:35.896Z,102119.34
2022-10-28T21:51:06.343Z,102119.06
2022-10-28T21:53:37.168Z,102110.91
2022-10-28T21:56:13.810Z,102108.09
2022-10-28T21:58:43.035Z,102104.38
2022-10-28T22:01:15.967Z,102108.22
2022-10-28T22:03:42.758Z,102100.50
2022-10-28T22:06:09.621Z,102100.09
2022-10-28T22:08:36.182Z,102100.81
2022-10-28T22:11:15.076Z,102099.09
2022-10-28T22:13:41.918Z,102098.94
2022-10-28T22:16:11.794Z,102103.81
2022-10-28T22:18:38.907Z,102102.69
2022-10-28T22:21:12.046Z,102096.25
2022-10-28T22:23:38.927Z,102101.38
2022-10-28T22:26:07.484Z,102095.97
2022-10-28T22:28:34.769Z,102097.81
2022-10-28T22:31:03.597Z,102092.25
2022-10-28T22:33:30.137Z,102097.41
2022-10-28T22:35:58.384Z,102097.50
2022-10-28T22:38:25.288Z,102101.66
2022-10-28T22:41:05.312Z,102095.97
2022-10-28T22:43:32.130Z,102092.25
2022-10-28T22:45:59.838Z,102102.22
2022-10-28T22:48:27.081Z,102097.97
2022-10-28T22:50:53.876Z,102096.09
2022-10-28T22:53:20.394Z,102096.22
2022-10-28T22:55:47.490Z,102098.22
2022-10-28T22:58:15.241Z,102101.81
2022-10-28T23:00:41.783Z,102097.38
2022-10-28T23:03:08.310Z,102095.53
2022-10-28T23:05:34.817Z,102086.97
2022-10-28T23:08:01.411Z,102083.09
2022-10-28T23:10:28.828Z,102094.94
2022-10-28T23:13:00.077Z,102093.53
2022-10-28T23:15:27.851Z,102091.38
2022-10-28T23:17:54.631Z,102075.66
2022-10-28T23:20:23.118Z,102080.81
2022-10-28T23:22:49.656Z,102079.09
2022-10-28T23:25:17.117Z,102078.38
2022-10-28T23:27:44.703Z,102078.47
2022-10-28T23:30:12.837Z,102072.25
2022-10-28T23:32:40.328Z,102069.22
2022-10-28T23:35:07.281Z,102079.91
2022-10-28T23:37:33.837Z,102078.31
2022-10-28T23:40:00.474Z,102076.75
2022-10-28T23:42:27.034Z,102069.06
2022-10-28T23:44:53.574Z,102056.50
2022-10-28T23:47:20.156Z,102059.94
2022-10-28T23:49:46.701Z,102057.94
2022-10-28T23:52:13.241Z,102062.22
2022-10-28T23:54:39.783Z,102061.34
2022-10-28T23:57:06.309Z,102068.75
2022-10-28T23:59:32.860Z,102065.19
